sensor_id;sensor_type;location;lat;lon;timestamp;P1;durP1;ratioP1;P2;durP2;ratioP2
54372;SDS011;69157;53.094;10.016;2023-11-19T00:02:23;0.43;;;0.43;;
54372;SDS011;69157;53.094;10.016;2023-11-19T00:04:49;1.15;;;0.70;;
54372;SDS011;69157;53.094;10.016;2023-11-19T00:07:15;0.80;;;0.60;;
54372;SDS011;69157;53.094;10.016;2023-11-19T00:09:42;1.30;;;0.68;;
54372;SDS011;69157;53.094;10.016;2023-11-19T00:12:08;0.47;;;0.47;;
54372;SDS011;69157;53.094;10.016;2023-11-19T00:14:37;0.38;;;0.38;;
54372;SDS011;69157;53.094;10.016;2023-11-19T00:17:06;0.85;;;0.55;;
54372;SDS011;69157;53.094;10.016;2023-11-19T00:19:33;0.63;;;0.50;;
54372;SDS011;69157;53.094;10.016;2023-11-19T00:22:00;0.90;;;0.70;;
54372;SDS011;69157;53.094;10.016;2023-11-19T00:24:28;0.30;;;0.30;;
54372;SDS011;69157;53.094;10.016;2023-11-19T00:26:56;0.40;;;0.40;;
54372;SDS011;69157;53.094;10.016;2023-11-19T00:29:21;0.40;;;0.40;;
54372;SDS011;69157;53.094;10.016;2023-11-19T00:31:50;0.55;;;0.43;;
54372;SDS011;69157;53.094;10.016;2023-11-19T00:34:16;0.57;;;0.57;;
54372;SDS011;69157;53.094;10.016;2023-11-19T00:36:46;0.38;;;0.20;;
54372;SDS011;69157;53.094;10.016;2023-11-19T00:39:12;0.40;;;0.40;;
54372;SDS011;69157;53.094;10.016;2023-11-19T00:41:40;0.30;;;0.30;;
54372;SDS011;69157;53.094;10.016;2023-11-19T00:44:06;0.47;;;0.47;;
54372;SDS011;69157;53.094;10.016;2023-11-19T00:46:32;0.60;;;0.60;;
54372;SDS011;69157;53.094;10.016;2023-11-19T00:49:00;0.45;;;0.40;;
54372;SDS011;69157;53.094;10.016;2023-11-19T00:51:27;0.38;;;0.30;;
54372;SDS011;69157;53.094;10.016;2023-11-19T00:53:56;0.40;;;0.40;;
54372;SDS011;69157;53.094;10.016;2023-11-19T00:56:22;0.30;;;0.30;;
54372;SDS011;69157;53.094;10.016;2023-11-19T00:58:48;0.40;;;0.40;;
54372;SDS011;69157;53.094;10.016;2023-11-19T01:01:14;0.82;;;0.70;;
54372;SDS011;69157;53.094;10.016;2023-11-19T01:03:40;0.30;;;0.30;;
54372;SDS011;69157;53.094;10.016;2023-11-19T01:06:07;1.85;;;0.40;;
54372;SDS011;69157;53.094;10.016;2023-11-19T01:08:34;0.57;;;0.40;;
54372;SDS011;69157;53.094;10.016;2023-11-19T01:11:01;0.40;;;0.40;;
54372;SDS011;69157;53.094;10.016;2023-11-19T01:13:29;0.40;;;0.40;;
54372;SDS011;69157;53.094;10.016;2023-11-19T01:15:55;0.40;;;0.40;;
54372;SDS011;69157;53.094;10.016;2023-11-19T01:18:22;0.43;;;0.43;;
54372;SDS011;69157;53.094;10.016;2023-11-19T01:20:48;0.30;;;0.30;;
54372;SDS011;69157;53.094;10.016;2023-11-19T01:23:14;0.98;;;0.40;;
54372;SDS011;69157;53.094;10.016;2023-11-19T01:25:43;0.30;;;0.30;;
54372;SDS011;69157;53.094;10.016;2023-11-19T01:28:10;0.30;;;0.30;;
54372;SDS011;69157;53.094;10.016;2023-11-19T01:30:37;0.30;;;0.30;;
54372;SDS011;69157;53.094;10.016;2023-11-19T01:33:04;0.30;;;0.30;;
54372;SDS011;69157;53.094;10.016;2023-11-19T01:35:32;0.30;;;0.30;;
54372;SDS011;69157;53.094;10.016;2023-11-19T01:37:58;0.30;;;0.30;;
54372;SDS011;69157;53.094;10.016;2023-11-19T01:40:27;0.35;;;0.35;;
54372;SDS011;69157;53.094;10.016;2023-11-19T01:42:53;0.30;;;0.30;;
54372;SDS011;69157;53.094;10.016;2023-11-19T01:45:22;0.45;;;0.45;;
54372;SDS011;69157;53.094;10.016;2023-11-19T01:47:49;0.25;;;0.25;;
54372;SDS011;69157;53.094;10.016;2023-11-19T01:50:16;0.20;;;0.20;;
54372;SDS011;69157;53.094;10.016;2023-11-19T01:52:42;0.30;;;0.30;;
54372;SDS011;69157;53.094;10.016;2023-11-19T01:55:08;0.38;;;0.38;;
54372;SDS011;69157;53.094;10.016;2023-11-19T01:57:34;0.30;;;0.30;;
54372;SDS011;69157;53.094;10.016;2023-11-19T02:00:02;0.30;;;0.30;;
54372;SDS011;69157;53.094;10.016;2023-11-19T02:02:28;0.40;;;0.40;;
54372;SDS011;69157;53.094;10.016;2023-11-19T02:04:54;0.30;;;0.30;;
54372;SDS011;69157;53.094;10.016;2023-11-19T02:07:20;1.10;;;0.43;;
54372;SDS011;69157;53.094;10.016;2023-11-19T02:09:46;0.30;;;0.30;;
54372;SDS011;69157;53.094;10.016;2023-11-19T02:12:12;0.30;;;0.30;;
54372;SDS011;69157;53.094;10.016;2023-11-19T02:14:38;0.50;;;0.50;;
54372;SDS011;69157;53.094;10.016;2023-11-19T02:17:07;0.90;;;0.55;;
54372;SDS011;69157;53.094;10.016;2023-11-19T02:19:33;0.40;;;0.40;;
54372;SDS011;69157;53.094;10.016;2023-11-19T02:21:59;0.55;;;0.50;;
54372;SDS011;69157;53.094;10.016;2023-11-19T02:24:26;0.60;;;0.60;;
54372;SDS011;69157;53.094;10.016;2023-11-19T02:27:06;0.30;;;0.30;;
54372;SDS011;69157;53.094;10.016;2023-11-19T02:29:35;0.47;;;0.47;;
54372;SDS011;69157;53.094;10.016;2023-11-19T02:32:03;0.40;;;0.40;;
54372;SDS011;69157;53.094;10.016;2023-11-19T02:34:34;0.70;;;0.45;;
54372;SDS011;69157;53.094;10.016;2023-11-19T02:37:00;0.35;;;0.35;;
54372;SDS011;69157;53.094;10.016;2023-11-19T02:39:26;0.73;;;0.60;;
54372;SDS011;69157;53.094;10.016;2023-11-19T02:41:53;0.75;;;0.60;;
54372;SDS011;69157;53.094;10.016;2023-11-19T02:44:20;0.57;;;0.40;;
54372;SDS011;69157;53.094;10.016;2023-11-19T02:46:48;0.50;;;0.50;;
54372;SDS011;69157;53.094;10.016;2023-11-19T02:49:15;0.68;;;0.45;;
54372;SDS011;69157;53.094;10.016;2023-11-19T02:51:42;0.45;;;0.45;;
54372;SDS011;69157;53.094;10.016;2023-11-19T02:54:08;0.45;;;0.45;;
54372;SDS011;69157;53.094;10.016;2023-11-19T02:56:35;0.45;;;0.43;;
54372;SDS011;69157;53.094;10.016;2023-11-19T02:59:02;0.40;;;0.40;;
54372;SDS011;69157;53.094;10.016;2023-11-19T03:01:40;0.60;;;0.60;;
54372;SDS011;69157;53.094;10.016;2023-11-19T03:04:09;0.88;;;0.65;;
54372;SDS011;69157;53.094;10.016;2023-11-19T03:06:37;2.42;;;0.50;;
54372;SDS011;69157;53.094;10.016;2023-11-19T03:09:03;0.70;;;0.70;;
54372;SDS011;69157;53.094;10.016;2023-11-19T03:11:35;0.47;;;0.47;;
54372;SDS011;69157;53.094;10.016;2023-11-19T03:14:01;0.75;;;0.55;;
54372;SDS011;69157;53.094;10.016;2023-11-19T03:16:28;1.02;;;0.93;;
54372;SDS011;69157;53.094;10.016;2023-11-19T03:18:54;0.50;;;0.50;;
54372;SDS011;69157;53.094;10.016;2023-11-19T03:21:30;1.15;;;0.75;;
54372;SDS011;69157;53.094;10.016;2023-11-19T03:23:57;0.70;;;0.68;;
54372;SDS011;69157;53.094;10.016;2023-11-19T03:26:26;0.68;;;0.68;;
54372;SDS011;69157;53.094;10.016;2023-11-19T03:28:54;1.67;;;0.68;;
54372;SDS011;69157;53.094;10.016;2023-11-19T03:31:22;1.10;;;1.00;;
54372;SDS011;69157;53.094;10.016;2023-11-19T03:33:49;1.00;;;0.90;;
54372;SDS011;69157;53.094;10.016;2023-11-19T03:36:15;0.70;;;0.70;;
54372;SDS011;69157;53.094;10.016;2023-11-19T03:38:42;1.75;;;1.10;;
54372;SDS011;69157;53.094;10.016;2023-11-19T03:41:11;1.55;;;1.20;;
54372;SDS011;69157;53.094;10.016;2023-11-19T03:43:39;2.17;;;1.13;;
54372;SDS011;69157;53.094;10.016;2023-11-19T03:46:20;1.05;;;0.85;;
54372;SDS011;69157;53.094;10.016;2023-11-19T03:48:47;1.63;;;1.00;;
54372;SDS011;69157;53.094;10.016;2023-11-19T03:51:13;1.60;;;1.48;;
54372;SDS011;69157;53.094;10.016;2023-11-19T03:53:44;1.40;;;1.08;;
54372;SDS011;69157;53.094;10.016;2023-11-19T03:56:10;1.85;;;1.27;;
54372;SDS011;69157;53.094;10.016;2023-11-19T03:58:36;1.80;;;1.50;;
54372;SDS011;69157;53.094;10.016;2023-11-19T04:01:03;1.40;;;1.27;;
54372;SDS011;69157;53.094;10.016;2023-11-19T04:03:29;1.52;;;1.27;;
54372;SDS011;69157;53.094;10.016;2023-11-19T04:05:57;2.25;;;1.50;;
54372;SDS011;69157;53.094;10.016;2023-11-19T04:08:24;1.88;;;1.27;;
54372;SDS011;69157;53.094;10.016;2023-11-19T04:10:50;4.07;;;1.90;;
54372;SDS011;69157;53.094;10.016;2023-11-19T04:13:15;3.53;;;1.80;;
54372;SDS011;69157;53.094;10.016;2023-11-19T04:15:41;4.07;;;2.00;;
54372;SDS011;69157;53.094;10.016;2023-11-19T04:18:08;3.60;;;1.92;;
54372;SDS011;69157;53.094;10.016;2023-11-19T04:20:36;2.60;;;1.55;;
54372;SDS011;69157;53.094;10.016;2023-11-19T04:23:05;3.03;;;2.03;;
54372;SDS011;69157;53.094;10.016;2023-11-19T04:25:31;2.70;;;1.65;;
54372;SDS011;69157;53.094;10.016;2023-11-19T04:27:57;3.88;;;2.65;;
54372;SDS011;69157;53.094;10.016;2023-11-19T04:30:24;5.53;;;2.55;;
54372;SDS011;69157;53.094;10.016;2023-11-19T04:32:50;6.55;;;1.92;;
54372;SDS011;69157;53.094;10.016;2023-11-19T04:35:16;3.78;;;2.05;;
54372;SDS011;69157;53.094;10.016;2023-11-19T04:37:44;4.90;;;2.63;;
54372;SDS011;69157;53.094;10.016;2023-11-19T04:40:10;7.70;;;2.38;;
54372;SDS011;69157;53.094;10.016;2023-11-19T04:42:37;5.82;;;3.03;;
54372;SDS011;69157;53.094;10.016;2023-11-19T04:45:06;4.07;;;2.13;;
54372;SDS011;69157;53.094;10.016;2023-11-19T04:47:35;4.45;;;2.85;;
54372;SDS011;69157;53.094;10.016;2023-11-19T04:50:01;6.32;;;3.03;;
54372;SDS011;69157;53.094;10.016;2023-11-19T04:52:27;5.60;;;3.15;;
54372;SDS011;69157;53.094;10.016;2023-11-19T04:54:53;5.82;;;3.25;;
54372;SDS011;69157;53.094;10.016;2023-11-19T04:57:19;6.93;;;3.88;;
54372;SDS011;69157;53.094;10.016;2023-11-19T04:59:45;6.63;;;3.90;;
54372;SDS011;69157;53.094;10.016;2023-11-19T05:02:14;6.10;;;3.22;;
54372;SDS011;69157;53.094;10.016;2023-11-19T05:04:44;9.32;;;3.72;;
54372;SDS011;69157;53.094;10.016;2023-11-19T05:07:14;7.13;;;3.78;;
54372;SDS011;69157;53.094;10.016;2023-11-19T05:09:40;7.78;;;3.85;;
54372;SDS011;69157;53.094;10.016;2023-11-19T05:12:06;7.65;;;4.32;;
54372;SDS011;69157;53.094;10.016;2023-11-19T05:14:36;9.43;;;4.20;;
54372;SDS011;69157;53.094;10.016;2023-11-19T05:17:04;6.03;;;3.60;;
54372;SDS011;69157;53.094;10.016;2023-11-19T05:19:30;11.43;;;3.65;;
54372;SDS011;69157;53.094;10.016;2023-11-19T05:21:55;9.32;;;4.35;;
54372;SDS011;69157;53.094;10.016;2023-11-19T05:24:21;7.55;;;4.00;;
54372;SDS011;69157;53.094;10.016;2023-11-19T05:26:47;8.70;;;3.85;;
54372;SDS011;69157;53.094;10.016;2023-11-19T05:29:16;9.07;;;4.70;;
54372;SDS011;69157;53.094;10.016;2023-11-19T05:31:42;8.63;;;4.22;;
54372;SDS011;69157;53.094;10.016;2023-11-19T05:34:08;13.20;;;4.70;;
54372;SDS011;69157;53.094;10.016;2023-11-19T05:36:35;10.07;;;3.85;;
54372;SDS011;69157;53.094;10.016;2023-11-19T05:39:02;12.90;;;4.20;;
54372;SDS011;69157;53.094;10.016;2023-11-19T05:41:29;11.88;;;4.68;;
54372;SDS011;69157;53.094;10.016;2023-11-19T05:43:57;16.48;;;5.35;;
54372;SDS011;69157;53.094;10.016;2023-11-19T05:46:24;16.48;;;4.85;;
54372;SDS011;69157;53.094;10.016;2023-11-19T05:48:52;11.50;;;4.47;;
54372;SDS011;69157;53.094;10.016;2023-11-19T05:51:18;16.67;;;6.22;;
54372;SDS011;69157;53.094;10.016;2023-11-19T05:53:45;10.02;;;4.38;;
54372;SDS011;69157;53.094;10.016;2023-11-19T05:56:12;12.85;;;4.65;;
54372;SDS011;69157;53.094;10.016;2023-11-19T05:58:38;14.73;;;5.25;;
54372;SDS011;69157;53.094;10.016;2023-11-19T06:01:05;12.77;;;4.95;;
54372;SDS011;69157;53.094;10.016;2023-11-19T06:03:32;8.55;;;3.97;;
54372;SDS011;69157;53.094;10.016;2023-11-19T06:06:01;16.50;;;5.30;;
54372;SDS011;69157;53.094;10.016;2023-11-19T06:08:27;13.65;;;5.50;;
54372;SDS011;69157;53.094;10.016;2023-11-19T06:10:55;14.48;;;4.50;;
54372;SDS011;69157;53.094;10.016;2023-11-19T06:13:21;11.40;;;4.93;;
54372;SDS011;69157;53.094;10.016;2023-11-19T06:15:47;10.48;;;4.70;;
54372;SDS011;69157;53.094;10.016;2023-11-19T06:18:13;10.23;;;3.78;;
54372;SDS011;69157;53.094;10.016;2023-11-19T06:20:40;14.27;;;4.13;;
54372;SDS011;69157;53.094;10.016;2023-11-19T06:23:06;12.50;;;3.50;;
54372;SDS011;69157;53.094;10.016;2023-11-19T06:25:32;10.10;;;4.00;;
54372;SDS011;69157;53.094;10.016;2023-11-19T06:28:03;13.38;;;4.68;;
54372;SDS011;69157;53.094;10.016;2023-11-19T06:30:29;13.88;;;4.47;;
54372;SDS011;69157;53.094;10.016;2023-11-19T06:32:57;9.05;;;3.78;;
54372;SDS011;69157;53.094;10.016;2023-11-19T06:35:23;13.10;;;4.65;;
54372;SDS011;69157;53.094;10.016;2023-11-19T06:37:49;14.77;;;4.25;;
54372;SDS011;69157;53.094;10.016;2023-11-19T06:40:16;11.10;;;4.40;;
54372;SDS011;69157;53.094;10.016;2023-11-19T06:42:44;16.83;;;4.50;;
54372;SDS011;69157;53.094;10.016;2023-11-19T06:45:10;12.95;;;3.88;;
54372;SDS011;69157;53.094;10.016;2023-11-19T06:47:36;8.07;;;4.30;;
54372;SDS011;69157;53.094;10.016;2023-11-19T06:50:02;13.65;;;4.38;;
54372;SDS011;69157;53.094;10.016;2023-11-19T06:52:30;9.98;;;4.10;;
54372;SDS011;69157;53.094;10.016;2023-11-19T06:54:56;8.85;;;3.65;;
54372;SDS011;69157;53.094;10.016;2023-11-19T06:57:23;10.50;;;4.38;;
54372;SDS011;69157;53.094;10.016;2023-11-19T06:59:49;12.38;;;4.03;;
54372;SDS011;69157;53.094;10.016;2023-11-19T07:02:16;7.10;;;3.55;;
54372;SDS011;69157;53.094;10.016;2023-11-19T07:04:42;10.18;;;3.50;;
54372;SDS011;69157;53.094;10.016;2023-11-19T07:07:08;15.88;;;4.18;;
54372;SDS011;69157;53.094;10.016;2023-11-19T07:09:36;8.20;;;3.25;;
54372;SDS011;69157;53.094;10.016;2023-11-19T07:12:03;9.05;;;4.05;;
54372;SDS011;69157;53.094;10.016;2023-11-19T07:14:31;13.48;;;3.28;;
54372;SDS011;69157;53.094;10.016;2023-11-19T07:16:58;11.85;;;2.75;;
54372;SDS011;69157;53.094;10.016;2023-11-19T07:19:26;7.27;;;2.73;;
54372;SDS011;69157;53.094;10.016;2023-11-19T07:21:52;7.15;;;3.50;;
54372;SDS011;69157;53.094;10.016;2023-11-19T07:24:20;14.45;;;2.92;;
54372;SDS011;69157;53.094;10.016;2023-11-19T07:26:47;20.80;;;3.67;;
54372;SDS011;69157;53.094;10.016;2023-11-19T07:29:14;8.70;;;2.45;;
54372;SDS011;69157;53.094;10.016;2023-11-19T07:31:43;13.00;;;2.92;;
54372;SDS011;69157;53.094;10.016;2023-11-19T07:34:09;6.18;;;2.42;;
54372;SDS011;69157;53.094;10.016;2023-11-19T07:36:36;8.88;;;3.20;;
54372;SDS011;69157;53.094;10.016;2023-11-19T07:39:03;4.57;;;2.25;;
54372;SDS011;69157;53.094;10.016;2023-11-19T07:41:30;8.57;;;2.70;;
54372;SDS011;69157;53.094;10.016;2023-11-19T07:43:55;7.15;;;2.90;;
54372;SDS011;69157;53.094;10.016;2023-11-19T07:46:21;9.90;;;2.60;;
54372;SDS011;69157;53.094;10.016;2023-11-19T07:48:47;14.68;;;4.28;;
54372;SDS011;69157;53.094;10.016;2023-11-19T07:51:13;16.27;;;3.70;;
54372;SDS011;69157;53.094;10.016;2023-11-19T07:53:40;10.63;;;3.45;;
54372;SDS011;69157;53.094;10.016;2023-11-19T07:56:08;8.02;;;1.85;;
54372;SDS011;69157;53.094;10.016;2023-11-19T07:58:34;9.30;;;2.28;;
54372;SDS011;69157;53.094;10.016;2023-11-19T08:01:00;9.65;;;2.42;;
54372;SDS011;69157;53.094;10.016;2023-11-19T08:03:29;14.93;;;3.47;;
54372;SDS011;69157;53.094;10.016;2023-11-19T08:05:55;7.13;;;2.60;;
54372;SDS011;69157;53.094;10.016;2023-11-19T08:08:24;12.82;;;1.88;;
54372;SDS011;69157;53.094;10.016;2023-11-19T08:10:50;9.60;;;2.70;;
54372;SDS011;69157;53.094;10.016;2023-11-19T08:13:17;12.60;;;2.55;;
54372;SDS011;69157;53.094;10.016;2023-11-19T08:15:45;8.75;;;2.53;;
54372;SDS011;69157;53.094;10.016;2023-11-19T08:18:13;11.43;;;3.10;;
54372;SDS011;69157;53.094;10.016;2023-11-19T08:20:39;4.55;;;2.05;;
54372;SDS011;69157;53.094;10.016;2023-11-19T08:23:10;6.07;;;2.50;;
54372;SDS011;69157;53.094;10.016;2023-11-19T08:28:04;3.85;;;1.48;;
54372;SDS011;69157;53.094;10.016;2023-11-19T08:30:31;9.18;;;2.38;;
54372;SDS011;69157;53.094;10.016;2023-11-19T08:32:59;6.30;;;2.65;;
54372;SDS011;69157;53.094;10.016;2023-11-19T08:35:28;6.47;;;2.20;;
54372;SDS011;69157;53.094;10.016;2023-11-19T08:37:53;9.90;;;2.00;;
54372;SDS011;69157;53.094;10.016;2023-11-19T08:40:19;11.10;;;2.55;;
54372;SDS011;69157;53.094;10.016;2023-11-19T08:42:45;10.50;;;2.03;;
54372;SDS011;69157;53.094;10.016;2023-11-19T08:45:11;7.78;;;2.10;;
54372;SDS011;69157;53.094;10.016;2023-11-19T08:47:39;10.00;;;2.20;;
54372;SDS011;69157;53.094;10.016;2023-11-19T08:50:05;9.43;;;2.28;;
54372;SDS011;69157;53.094;10.016;2023-11-19T08:52:31;8.18;;;2.17;;
54372;SDS011;69157;53.094;10.016;2023-11-19T08:54:57;11.15;;;2.22;;
54372;SDS011;69157;53.094;10.016;2023-11-19T08:57:26;7.72;;;1.92;;
54372;SDS011;69157;53.094;10.016;2023-11-19T08:59:53;10.73;;;2.17;;
54372;SDS011;69157;53.094;10.016;2023-11-19T09:02:19;7.82;;;2.17;;
54372;SDS011;69157;53.094;10.016;2023-11-19T09:04:45;9.27;;;1.65;;
54372;SDS011;69157;53.094;10.016;2023-11-19T09:07:13;4.50;;;1.77;;
54372;SDS011;69157;53.094;10.016;2023-11-19T09:09:39;15.40;;;1.90;;
54372;SDS011;69157;53.094;10.016;2023-11-19T09:12:05;8.88;;;2.25;;
54372;SDS011;69157;53.094;10.016;2023-11-19T09:14:31;12.30;;;1.92;;
54372;SDS011;69157;53.094;10.016;2023-11-19T09:16:57;10.90;;;2.03;;
54372;SDS011;69157;53.094;10.016;2023-11-19T09:19:23;5.18;;;2.00;;
54372;SDS011;69157;53.094;10.016;2023-11-19T09:21:49;8.23;;;1.90;;
54372;SDS011;69157;53.094;10.016;2023-11-19T09:24:15;8.70;;;1.73;;
54372;SDS011;69157;53.094;10.016;2023-11-19T09:26:44;6.20;;;1.33;;
54372;SDS011;69157;53.094;10.016;2023-11-19T09:29:10;9.57;;;1.90;;
54372;SDS011;69157;53.094;10.016;2023-11-19T09:31:39;9.77;;;2.00;;
54372;SDS011;69157;53.094;10.016;2023-11-19T09:34:05;8.25;;;2.03;;
54372;SDS011;69157;53.094;10.016;2023-11-19T09:36:31;13.55;;;2.20;;
54372;SDS011;69157;53.094;10.016;2023-11-19T09:38:57;8.73;;;1.52;;
54372;SDS011;69157;53.094;10.016;2023-11-19T09:41:25;6.40;;;1.52;;
54372;SDS011;69157;53.094;10.016;2023-11-19T09:43:52;9.23;;;1.90;;
54372;SDS011;69157;53.094;10.016;2023-11-19T09:46:18;5.65;;;1.48;;
54372;SDS011;69157;53.094;10.016;2023-11-19T09:48:45;6.55;;;1.42;;
54372;SDS011;69157;53.094;10.016;2023-11-19T09:51:17;6.07;;;1.33;;
54372;SDS011;69157;53.094;10.016;2023-11-19T09:53:43;6.68;;;1.52;;
54372;SDS011;69157;53.094;10.016;2023-11-19T09:56:09;4.40;;;1.38;;
54372;SDS011;69157;53.094;10.016;2023-11-19T09:58:37;2.97;;;1.30;;
54372;SDS011;69157;53.094;10.016;2023-11-19T10:01:04;7.70;;;1.50;;
54372;SDS011;69157;53.094;10.016;2023-11-19T10:03:37;7.55;;;1.80;;
54372;SDS011;69157;53.094;10.016;2023-11-19T10:06:07;7.43;;;1.38;;
54372;SDS011;69157;53.094;10.016;2023-11-19T10:08:34;9.73;;;1.55;;
54372;SDS011;69157;53.094;10.016;2023-11-19T10:11:00;8.68;;;1.58;;
54372;SDS011;69157;53.094;10.016;2023-11-19T10:13:26;10.23;;;1.60;;
54372;SDS011;69157;53.094;10.016;2023-11-19T10:15:52;8.02;;;1.25;;
54372;SDS011;69157;53.094;10.016;2023-11-19T10:18:18;8.70;;;1.17;;
54372;SDS011;69157;53.094;10.016;2023-11-19T10:20:49;8.50;;;1.65;;
54372;SDS011;69157;53.094;10.016;2023-11-19T10:23:15;6.80;;;1.35;;
54372;SDS011;69157;53.094;10.016;2023-11-19T10:25:40;5.22;;;1.35;;
54372;SDS011;69157;53.094;10.016;2023-11-19T10:28:06;11.43;;;1.58;;
54372;SDS011;69157;53.094;10.016;2023-11-19T10:30:32;10.50;;;2.03;;
54372;SDS011;69157;53.094;10.016;2023-11-19T10:33:06;5.20;;;1.33;;
54372;SDS011;69157;53.094;10.016;2023-11-19T10:35:33;8.55;;;1.25;;
54372;SDS011;69157;53.094;10.016;2023-11-19T10:38:01;3.35;;;1.05;;
54372;SDS011;69157;53.094;10.016;2023-11-19T10:40:41;5.55;;;1.67;;
54372;SDS011;69157;53.094;10.016;2023-11-19T10:43:07;7.22;;;1.35;;
54372;SDS011;69157;53.094;10.016;2023-11-19T10:45:34;5.55;;;1.80;;
54372;SDS011;69157;53.094;10.016;2023-11-19T10:48:02;9.10;;;1.35;;
54372;SDS011;69157;53.094;10.016;2023-11-19T10:50:31;5.80;;;1.48;;
54372;SDS011;69157;53.094;10.016;2023-11-19T10:52:57;7.82;;;1.67;;
54372;SDS011;69157;53.094;10.016;2023-11-19T10:55:35;5.40;;;1.25;;
54372;SDS011;69157;53.094;10.016;2023-11-19T10:58:06;7.40;;;1.50;;
54372;SDS011;69157;53.094;10.016;2023-11-19T11:00:41;2.90;;;1.25;;
54372;SDS011;69157;53.094;10.016;2023-11-19T11:03:17;11.75;;;1.55;;
54372;SDS011;69157;53.094;10.016;2023-11-19T11:05:47;9.65;;;1.63;;
54372;SDS011;69157;53.094;10.016;2023-11-19T11:08:14;7.43;;;1.55;;
54372;SDS011;69157;53.094;10.016;2023-11-19T11:10:45;11.45;;;2.00;;
54372;SDS011;69157;53.094;10.016;2023-11-19T11:13:11;6.00;;;1.55;;
54372;SDS011;69157;53.094;10.016;2023-11-19T11:15:39;7.60;;;1.67;;
54372;SDS011;69157;53.094;10.016;2023-11-19T11:18:07;6.25;;;1.50;;
54372;SDS011;69157;53.094;10.016;2023-11-19T11:20:34;6.88;;;1.75;;
54372;SDS011;69157;53.094;10.016;2023-11-19T11:23:11;9.88;;;1.60;;
54372;SDS011;69157;53.094;10.016;2023-11-19T11:28:37;3.42;;;1.45;;
54372;SDS011;69157;53.094;10.016;2023-11-19T11:36:20;9.05;;;2.58;;
54372;SDS011;69157;53.094;10.016;2023-11-19T11:38:48;9.40;;;2.85;;
54372;SDS011;69157;53.094;10.016;2023-11-19T11:41:15;7.00;;;2.33;;
54372;SDS011;69157;53.094;10.016;2023-11-19T11:43:47;11.52;;;2.22;;
54372;SDS011;69157;53.094;10.016;2023-11-19T11:46:59;8.65;;;1.88;;
54372;SDS011;69157;53.094;10.016;2023-11-19T11:49:06;5.25;;;1.77;;
54372;SDS011;69157;53.094;10.016;2023-11-19T11:54:11;5.15;;;1.48;;
54372;SDS011;69157;53.094;10.016;2023-11-19T11:56:37;4.43;;;1.35;;
54372;SDS011;69157;53.094;10.016;2023-11-19T11:59:08;4.45;;;1.35;;
54372;SDS011;69157;53.094;10.016;2023-11-19T12:01:35;3.67;;;1.10;;
54372;SDS011;69157;53.094;10.016;2023-11-19T12:04:01;8.18;;;1.50;;
54372;SDS011;69157;53.094;10.016;2023-11-19T12:06:32;13.05;;;2.38;;
54372;SDS011;69157;53.094;10.016;2023-11-19T12:08:59;4.70;;;1.52;;
54372;SDS011;69157;53.094;10.016;2023-11-19T12:11:25;7.63;;;1.55;;
54372;SDS011;69157;53.094;10.016;2023-11-19T12:13:54;7.00;;;1.75;;
54372;SDS011;69157;53.094;10.016;2023-11-19T12:16:24;3.42;;;1.33;;
54372;SDS011;69157;53.094;10.016;2023-11-19T12:18:54;9.02;;;1.98;;
54372;SDS011;69157;53.094;10.016;2023-11-19T12:21:29;6.82;;;2.05;;
54372;SDS011;69157;53.094;10.016;2023-11-19T12:23:55;6.82;;;1.35;;
54372;SDS011;69157;53.094;10.016;2023-11-19T12:26:30;15.00;;;1.67;;
54372;SDS011;69157;53.094;10.016;2023-11-19T12:28:58;8.57;;;1.50;;
54372;SDS011;69157;53.094;10.016;2023-11-19T12:31:32;9.18;;;1.70;;
54372;SDS011;69157;53.094;10.016;2023-11-19T12:34:00;10.90;;;1.58;;
54372;SDS011;69157;53.094;10.016;2023-11-19T12:36:26;10.73;;;1.50;;
54372;SDS011;69157;53.094;10.016;2023-11-19T12:38:52;8.30;;;2.30;;
54372;SDS011;69157;53.094;10.016;2023-11-19T12:41:19;5.80;;;1.33;;
54372;SDS011;69157;53.094;10.016;2023-11-19T12:43:48;3.28;;;1.33;;
54372;SDS011;69157;53.094;10.016;2023-11-19T12:48:45;14.50;;;1.67;;
54372;SDS011;69157;53.094;10.016;2023-11-19T12:51:12;12.43;;;1.77;;
54372;SDS011;69157;53.094;10.016;2023-11-19T12:53:47;8.18;;;1.50;;
54372;SDS011;69157;53.094;10.016;2023-11-19T12:56:19;9.20;;;1.70;;
54372;SDS011;69157;53.094;10.016;2023-11-19T12:58:46;13.43;;;1.92;;
54372;SDS011;69157;53.094;10.016;2023-11-19T13:01:15;6.97;;;1.38;;
54372;SDS011;69157;53.094;10.016;2023-11-19T13:03:41;7.45;;;1.98;;
54372;SDS011;69157;53.094;10.016;2023-11-19T13:06:10;13.80;;;2.03;;
54372;SDS011;69157;53.094;10.016;2023-11-19T13:08:40;6.95;;;1.67;;
54372;SDS011;69157;53.094;10.016;2023-11-19T13:11:07;10.00;;;2.00;;
54372;SDS011;69157;53.094;10.016;2023-11-19T13:13:54;10.07;;;2.25;;
54372;SDS011;69157;53.094;10.016;2023-11-19T13:16:30;10.27;;;1.90;;
54372;SDS011;69157;53.094;10.016;2023-11-19T13:18:57;5.05;;;1.75;;
54372;SDS011;69157;53.094;10.016;2023-11-19T13:21:24;9.95;;;1.67;;
54372;SDS011;69157;53.094;10.016;2023-11-19T13:23:50;7.78;;;1.70;;
54372;SDS011;69157;53.094;10.016;2023-11-19T13:26:16;10.40;;;1.75;;
54372;SDS011;69157;53.094;10.016;2023-11-19T13:28:42;9.90;;;2.05;;
54372;SDS011;69157;53.094;10.016;2023-11-19T13:31:08;6.65;;;1.45;;
54372;SDS011;69157;53.094;10.016;2023-11-19T13:33:35;10.00;;;1.70;;
54372;SDS011;69157;53.094;10.016;2023-11-19T13:36:04;14.25;;;2.10;;
54372;SDS011;69157;53.094;10.016;2023-11-19T13:38:33;9.38;;;1.80;;
54372;SDS011;69157;53.094;10.016;2023-11-19T13:41:01;15.38;;;2.13;;
54372;SDS011;69157;53.094;10.016;2023-11-19T13:43:29;9.98;;;1.92;;
54372;SDS011;69157;53.094;10.016;2023-11-19T13:45:55;13.02;;;2.33;;
54372;SDS011;69157;53.094;10.016;2023-11-19T13:48:23;11.80;;;1.70;;
54372;SDS011;69157;53.094;10.016;2023-11-19T13:50:50;9.02;;;1.63;;
54372;SDS011;69157;53.094;10.016;2023-11-19T13:53:16;3.92;;;1.20;;
54372;SDS011;69157;53.094;10.016;2023-11-19T13:55:42;6.15;;;1.52;;
54372;SDS011;69157;53.094;10.016;2023-11-19T13:58:11;7.25;;;1.45;;
54372;SDS011;69157;53.094;10.016;2023-11-19T14:00:37;10.02;;;2.00;;
54372;SDS011;69157;53.094;10.016;2023-11-19T14:03:03;7.68;;;1.85;;
54372;SDS011;69157;53.094;10.016;2023-11-19T14:05:29;4.38;;;1.08;;
54372;SDS011;69157;53.094;10.016;2023-11-19T14:07:57;5.78;;;1.35;;
54372;SDS011;69157;53.094;10.016;2023-11-19T14:10:24;6.63;;;1.60;;
54372;SDS011;69157;53.094;10.016;2023-11-19T14:12:51;5.40;;;1.13;;
54372;SDS011;69157;53.094;10.016;2023-11-19T14:15:18;3.15;;;1.15;;
54372;SDS011;69157;53.094;10.016;2023-11-19T14:17:45;2.15;;;0.57;;
54372;SDS011;69157;53.094;10.016;2023-11-19T14:20:13;2.88;;;1.00;;
54372;SDS011;69157;53.094;10.016;2023-11-19T14:22:40;6.93;;;1.48;;
54372;SDS011;69157;53.094;10.016;2023-11-19T14:25:06;5.13;;;1.13;;
54372;SDS011;69157;53.094;10.016;2023-11-19T14:27:34;5.68;;;0.90;;
54372;SDS011;69157;53.094;10.016;2023-11-19T14:30:00;6.70;;;1.00;;
54372;SDS011;69157;53.094;10.016;2023-11-19T14:32:26;3.28;;;0.90;;
54372;SDS011;69157;53.094;10.016;2023-11-19T14:34:52;0.60;;;0.50;;
54372;SDS011;69157;53.094;10.016;2023-11-19T14:37:19;1.13;;;0.60;;
54372;SDS011;69157;53.094;10.016;2023-11-19T14:39:46;3.30;;;0.85;;
54372;SDS011;69157;53.094;10.016;2023-11-19T14:42:15;2.40;;;0.63;;
54372;SDS011;69157;53.094;10.016;2023-11-19T14:44:41;2.40;;;0.47;;
54372;SDS011;69157;53.094;10.016;2023-11-19T14:47:07;2.08;;;0.63;;
54372;SDS011;69157;53.094;10.016;2023-11-19T14:49:39;1.13;;;0.50;;